M I D A S
Marine Information and Data Acquisition System
Tripno 1281 of the Zeeleeuw from 2007-05-31 07:14:18 to 2007-05-31 14:33:15
Back to CruiseResearch ActivitiesStationsMapUnderway DataData graphs

EquipmentUnitsComment
TimeDGPSUTC
LatitudeDGPSDM.mWGS84
LongitudeDGPSDM.mWGS84
HeadingGyrodeg 
SOGDGPSknotsSpeed over ground
COGDGPSdegCourse over ground
DepthEcho soundermeters200 kHz
Missing or incorrect values are displayed as -999
Navigation data collected by the RV Zeeleeuw from 2007-05-31 07:16:55 to 2007-05-31 14:42:46
                                                                                    Next 1000 lines
Time Latitude Longitude Heading SOG COG Depth
2007-05-31 07:17:05 51°13.597 2°56.093 115.5 0.7 294 7.3
2007-05-31 07:17:10 51°13.598 2°56.091 115.5 1 296 7.3
2007-05-31 07:17:15 51°13.599 2°56.088 116.1 1.4 299 7.3
2007-05-31 07:17:20 51°13.599 2°56.085 116.5 1.7 296 7.3
2007-05-31 07:17:25 51°13.601 2°56.081 116.9 2 298 5.5
2007-05-31 07:17:30 51°13.602 2°56.076 117.3 2.3 295 -999
2007-05-31 07:17:35 51°13.604 2°56.071 117.3 2.6 297 -999
2007-05-31 07:17:40 51°13.605 2°56.065 117.3 2.8 295 -999
2007-05-31 07:17:45 51°13.607 2°56.06 117.4 2.9 296 -999
2007-05-31 07:17:50 51°13.609 2°56.053 117.8 3.1 296 -999
2007-05-31 07:17:55 51°13.611 2°56.047 118.4 3.2 296 -999
2007-05-31 07:18:00 51°13.613 2°56.04 119.1 3.4 297 -999
2007-05-31 07:18:05 51°13.616 2°56.033 120.2 3.6 297 -999
2007-05-31 07:18:10 51°13.618 2°56.026 121.1 3.8 298 -999
2007-05-31 07:18:15 51°13.621 2°56.018 121.7 4 299 -999
2007-05-31 07:18:20 51°13.624 2°56.01 122.1 4.1 299 -999
2007-05-31 07:18:25 51°13.626 2°56.002 122.6 4.3 299 -999
2007-05-31 07:18:30 51°13.629 2°55.993 123.1 4.4 300 -999
2007-05-31 07:18:35 51°13.633 2°55.985 123.4 4.5 300 -999
2007-05-31 07:18:40 51°13.636 2°55.976 123.8 4.6 301 -999
2007-05-31 07:18:45 51°13.639 2°55.967 124.1 4.7 301 -999
2007-05-31 07:18:50 51°13.643 2°55.958 124.3 4.8 302 -999
2007-05-31 07:18:55 51°13.646 2°55.949 124.6 4.9 301 -999
2007-05-31 07:19:00 51°13.65 2°55.94 124.6 4.9 302 -999
2007-05-31 07:19:05 51°13.653 2°55.931 124.2 4.9 302 -999
2007-05-31 07:19:10 51°13.657 2°55.922 123.4 4.7 302 -999
2007-05-31 07:19:15 51°13.66 2°55.913 122.7 4.6 302 -999
2007-05-31 07:19:20 51°13.664 2°55.904 121.6 4.5 301 -999
2007-05-31 07:19:25 51°13.667 2°55.896 120.3 4.5 300 -999
2007-05-31 07:19:30 51°13.669 2°55.887 118.7 4.3 298 -999
2007-05-31 07:19:35 51°13.672 2°55.879 117.2 4.3 297 -999
2007-05-31 07:19:40 51°13.675 2°55.87 114.7 4.2 295 -999
2007-05-31 07:19:45 51°13.677 2°55.862 112.6 4.1 293 -999
2007-05-31 07:19:50 51°13.679 2°55.853 110.6 4.1 291 -999
2007-05-31 07:19:55 51°13.681 2°55.845 109 3.9 289 -999
2007-05-31 07:20:00 51°13.683 2°55.837 106.6 3.8 288 -999
2007-05-31 07:20:05 51°13.684 2°55.829 104.5 3.6 286 -999
2007-05-31 07:20:10 51°13.685 2°55.822 102.6 3.5 284 -999
2007-05-31 07:20:15 51°13.686 2°55.815 101.1 3.4 282 -999
2007-05-31 07:20:20 51°13.687 2°55.807 99.4 3.3 281 10.1
2007-05-31 07:20:25 51°13.687 2°55.8 98 3.2 279 4.8
2007-05-31 07:20:30 51°13.688 2°55.794 96.9 3.1 278 10.2
2007-05-31 07:20:35 51°13.689 2°55.787 95.3 3.1 277 10.1
2007-05-31 07:20:40 51°13.689 2°55.78 93.9 3 275 10.2
2007-05-31 07:20:45 51°13.689 2°55.774 92.1 2.9 274 10.1
2007-05-31 07:20:50 51°13.69 2°55.767 90.4 2.8 272 10
2007-05-31 07:20:55 51°13.69 2°55.761 88.5 2.7 271 10
2007-05-31 07:21:00 51°13.69 2°55.756 86.6 2.6 270 10
2007-05-31 07:21:05 51°13.69 2°55.75 84.9 2.5 268 10.1
2007-05-31 07:21:10 51°13.69 2°55.745 83.1 2.2 268 9.9
2007-05-31 07:21:15 51°13.69 2°55.741 81.2 2 264 10
2007-05-31 07:21:20 51°13.69 2°55.737 79.1 1.8 265 10.3
2007-05-31 07:21:25 51°13.689 2°55.733 76.8 1.6 262 10.5
2007-05-31 07:21:30 51°13.689 2°55.73 74.7 1.4 266 10.7
2007-05-31 07:21:35 51°13.689 2°55.728 72.5 1.1 263 10.9
2007-05-31 07:21:40 51°13.688 2°55.726 70.4 1 266 11
2007-05-31 07:21:45 51°13.688 2°55.724 68.2 0.8 265 11.1
2007-05-31 07:21:50 51°13.689 2°55.722 65.9 0.6 275 10.9
2007-05-31 07:21:55 51°13.689 2°55.722 63.6 0.3 307 10.8
2007-05-31 07:22:00 51°13.69 2°55.722 60.9 0.4 355 10.6
2007-05-31 07:22:05 51°13.691 2°55.722 57.4 0.7 19 10.7
2007-05-31 07:22:10 51°13.692 2°55.723 53.3 0.9 25 10.8
2007-05-31 07:22:15 51°13.694 2°55.724 48.3 1 21 11
2007-05-31 07:22:20 51°13.695 2°55.725 43.1 1.2 22 11.2
2007-05-31 07:22:25 51°13.697 2°55.725 38.4 1.3 17 11.1
2007-05-31 07:22:30 51°13.698 2°55.726 34 1.4 15 11.2
2007-05-31 07:22:35 51°13.7 2°55.727 29.8 1.5 10 11.3
2007-05-31 07:22:40 51°13.702 2°55.728 25.6 1.5 8 11.3
2007-05-31 07:22:45 51°13.704 2°55.728 21.6 1.7 4 11.3
2007-05-31 07:22:50 51°13.707 2°55.728 17.4 1.8 1 11
2007-05-31 07:22:55 51°13.709 2°55.728 13.4 1.9 359 10.7
2007-05-31 07:23:00 51°13.712 2°55.728 9.2 2.1 353 10.6
2007-05-31 07:23:05 51°13.715 2°55.727 4.6 2.2 350 10.6
2007-05-31 07:23:10 51°13.718 2°55.725 359.6 2.4 345 10.6
2007-05-31 07:23:15 51°13.722 2°55.724 354.3 2.6 341 11
2007-05-31 07:23:20 51°13.725 2°55.721 348.8 2.8 337 10.7
2007-05-31 07:23:25 51°13.729 2°55.718 342.9 3.1 334 -999
2007-05-31 07:23:30 51°13.734 2°55.715 338.9 3.6 332 -999
2007-05-31 07:23:35 51°13.739 2°55.71 336.8 4.3 331 10.5
2007-05-31 07:23:40 51°13.745 2°55.705 336.1 5 331 10.4
2007-05-31 07:23:45 51°13.752 2°55.699 336 5.5 333 -999
2007-05-31 07:23:50 51°13.759 2°55.692 336.5 6 332 10.3
2007-05-31 07:23:55 51°13.767 2°55.686 336.7 6.5 333 10.3
2007-05-31 07:24:00 51°13.775 2°55.679 336.9 6.9 333 10.2
2007-05-31 07:24:05 51°13.784 2°55.672 337 7.3 333 10.2
2007-05-31 07:24:10 51°13.794 2°55.664 337 7.6 334 10.2
2007-05-31 07:24:15 51°13.803 2°55.656 337.2 7.8 334 10.1
2007-05-31 07:24:20 51°13.813 2°55.649 337.5 8.1 335 10.1
2007-05-31 07:24:25 51°13.824 2°55.641 337.9 8.4 335 10.1
2007-05-31 07:24:30 51°13.834 2°55.633 338.2 8.5 335 10.2
2007-05-31 07:24:35 51°13.845 2°55.625 338.3 8.7 335 10.1
2007-05-31 07:24:40 51°13.856 2°55.617 338.8 8.8 336 10.2
2007-05-31 07:24:45 51°13.868 2°55.609 339.6 9 336 10.2
2007-05-31 07:24:50 51°13.879 2°55.601 339.7 9.1 335 10.1
2007-05-31 07:24:55 51°13.891 2°55.592 339.4 9.2 336 10.1
2007-05-31 07:25:00 51°13.903 2°55.584 339.6 9.2 336 9.9
2007-05-31 07:25:05 51°13.914 2°55.575 340.1 9.4 336 10.1
2007-05-31 07:25:10 51°13.926 2°55.567 340.4 9.4 336 10.1
2007-05-31 07:25:15 51°13.938 2°55.558 340.4 9.5 335 10.1
2007-05-31 07:25:20 51°13.95 2°55.549 339.7 9.6 335 10.1
2007-05-31 07:25:25 51°13.962 2°55.54 339.4 9.4 336 10.1
2007-05-31 07:25:30 51°13.974 2°55.532 339.6 9.2 336 10.1
2007-05-31 07:25:35 51°13.985 2°55.524 339.8 8.9 336 10.1
2007-05-31 07:25:40 51°13.996 2°55.516 339.9 8.7 335 10.2
2007-05-31 07:25:45 51°14.007 2°55.508 339.6 8.5 335 10.2
2007-05-31 07:25:50 51°14.017 2°55.501 339.6 8.3 336 10.2
2007-05-31 07:25:55 51°14.028 2°55.494 339.4 8.1 336 10.7
2007-05-31 07:26:00 51°14.038 2°55.486 339.4 8 335 10.2
2007-05-31 07:26:05 51°14.048 2°55.479 339.2 7.8 335 10.2
2007-05-31 07:26:10 51°14.057 2°55.472 338.9 7.7 334 10.3
2007-05-31 07:26:15 51°14.067 2°55.465 338.5 7.6 335 10.3
2007-05-31 07:26:20 51°14.076 2°55.458 338.2 7.5 334 10.3
2007-05-31 07:26:25 51°14.085 2°55.45 338.1 7.4 334 10.3
2007-05-31 07:26:30 51°14.094 2°55.443 338.1 7.3 334 10.2
2007-05-31 07:26:35 51°14.103 2°55.436 338.2 7.3 335 10.3
2007-05-31 07:26:40 51°14.112 2°55.429 338.2 7.3 335 10.3
2007-05-31 07:26:45 51°14.121 2°55.422 338.2 7.4 334 10.2
2007-05-31 07:26:50 51°14.13 2°55.414 338.1 7.6 333 10.3
2007-05-31 07:26:55 51°14.14 2°55.407 337.5 7.8 333 10.2
2007-05-31 07:27:00 51°14.15 2°55.399 336.9 7.9 332 10.3
2007-05-31 07:27:05 51°14.16 2°55.39 336.2 8.1 332 10.2
2007-05-31 07:27:10 51°14.17 2°55.381 335.3 8.2 330 10.2
2007-05-31 07:27:15 51°14.18 2°55.372 334.5 8.2 329 10.2
2007-05-31 07:27:20 51°14.189 2°55.362 333.2 8.3 328 5.3
2007-05-31 07:27:25 51°14.199 2°55.352 331.9 8.4 326 10.1
2007-05-31 07:27:30 51°14.209 2°55.341 330.4 8.5 325 10.2
2007-05-31 07:27:35 51°14.218 2°55.329 328.6 8.6 323 4.6
2007-05-31 07:27:40 51°14.228 2°55.317 326.9 8.8 321 10.2
2007-05-31 07:27:45 51°14.237 2°55.304 325.4 9 318 10.2
2007-05-31 07:27:50 51°14.246 2°55.29 322.1 9.2 315 4.8
2007-05-31 07:27:55 51°14.255 2°55.275 319.5 9.4 314 10.1
2007-05-31 07:28:00 51°14.264 2°55.259 318.1 9.5 313 10.2
2007-05-31 07:28:05 51°14.273 2°55.243 317 9.7 311 10.3
2007-05-31 07:28:10 51°14.282 2°55.227 315.6 9.9 311 10.1
2007-05-31 07:28:15 51°14.291 2°55.209 315.1 10.2 310 10.1
2007-05-31 07:28:20 51°14.3 2°55.192 315 10.4 311 10
2007-05-31 07:28:25 51°14.309 2°55.174 314.7 10.6 310 10.3
2007-05-31 07:28:30 51°14.319 2°55.155 313.8 10.8 310 10.1
2007-05-31 07:28:35 51°14.328 2°55.136 313.6 11 310 10.2
2007-05-31 07:28:40 51°14.339 2°55.117 313.9 11.1 310 10.2
2007-05-31 07:28:44 51°14.346 2°55.102 314.2 11.2 308 10.2
2007-05-31 07:28:50 51°14.358 2°55.078 312.8 11.3 307 10.2
2007-05-31 07:28:54 51°14.365 2°55.062 311.3 11.4 306 10.1
2007-05-31 07:28:59 51°14.374 2°55.041 310.7 11.5 305 10
2007-05-31 07:29:04 51°14.383 2°55.02 310 11.5 304 10
2007-05-31 07:29:10 51°14.394 2°54.995 309.2 11.6 304 10
2007-05-31 07:29:15 51°14.403 2°54.973 308.7 11.7 303 10
2007-05-31 07:29:20 51°14.412 2°54.951 308.2 11.8 302 10.1
2007-05-31 07:29:25 51°14.42 2°54.928 307.5 11.9 301 10.1
2007-05-31 07:29:30 51°14.428 2°54.905 306.8 12.1 300 10.2
2007-05-31 07:29:35 51°14.437 2°54.881 306.4 12.4 300 10.1
2007-05-31 07:29:40 51°14.446 2°54.857 306.2 12.5 300 10.1
2007-05-31 07:29:45 51°14.455 2°54.833 306.2 12.8 301 10.1
2007-05-31 07:29:50 51°14.464 2°54.808 306.9 13.1 301 10.2
2007-05-31 07:29:55 51°14.474 2°54.783 307.4 13.1 302 10.1
2007-05-31 07:30:00 51°14.483 2°54.758 308 13.3 301 10.1
2007-05-31 07:30:05 51°14.493 2°54.733 308.4 13.3 301 10
2007-05-31 07:30:10 51°14.502 2°54.707 308.4 13.4 301 9.9
2007-05-31 07:30:15 51°14.512 2°54.681 308.1 13.4 300 9.9
2007-05-31 07:30:20 51°14.521 2°54.656 307.7 13.5 300 9.8
2007-05-31 07:30:25 51°14.53 2°54.63 307.1 13.5 300 9.8
2007-05-31 07:30:30 51°14.539 2°54.604 307 13.5 299 9.6
2007-05-31 07:30:35 51°14.548 2°54.578 306.7 13.5 299 9.5
2007-05-31 07:30:40 51°14.557 2°54.552 306.3 13.5 299 9.4
2007-05-31 07:30:45 51°14.567 2°54.525 306.2 13.6 299 9.6
2007-05-31 07:30:49 51°14.574 2°54.504 306.3 13.6 299 9.6
2007-05-31 07:30:55 51°14.585 2°54.473 306.7 13.6 299 9.3
2007-05-31 07:31:00 51°14.594 2°54.447 306.9 13.6 300 9.4
2007-05-31 07:31:05 51°14.604 2°54.421 307.3 13.5 300 9.3
2007-05-31 07:31:10 51°14.613 2°54.396 307.7 13.5 301 9.3
2007-05-31 07:31:15 51°14.623 2°54.37 308.3 13.5 301 9.1
2007-05-31 07:31:20 51°14.633 2°54.344 308.6 13.5 301 9.1
2007-05-31 07:31:25 51°14.643 2°54.319 308.8 13.4 300 9.1
2007-05-31 07:31:30 51°14.652 2°54.293 308.8 13.4 300 9.1
2007-05-31 07:31:35 51°14.66 2°54.266 308.4 13.5 295 9.2
2007-05-31 07:31:40 51°14.667 2°54.239 304.7 13.5 294 9.2
2007-05-31 07:31:45 51°14.674 2°54.211 301.8 13.5 291 9.1
2007-05-31 07:31:50 51°14.68 2°54.183 299.2 13.5 289 9.1
2007-05-31 07:31:55 51°14.686 2°54.154 297.2 13.5 287 9.2
2007-05-31 07:32:00 51°14.69 2°54.125 294.6 13.5 283 9.4
2007-05-31 07:32:05 51°14.694 2°54.095 290.9 13.6 281 9.4
2007-05-31 07:32:10 51°14.697 2°54.066 288 13.6 279 9.9
2007-05-31 07:32:15 51°14.699 2°54.036 285.3 13.7 277 10
2007-05-31 07:32:20 51°14.701 2°54.006 283.5 13.7 276 10.3
2007-05-31 07:32:25 51°14.703 2°53.975 282.1 13.7 275 10.2
2007-05-31 07:32:30 51°14.705 2°53.945 281.1 13.7 275 10.3
2007-05-31 07:32:35 51°14.706 2°53.915 280.4 13.7 275 10.3
2007-05-31 07:32:40 51°14.708 2°53.885 279.9 13.7 276 10.1
2007-05-31 07:32:45 51°14.71 2°53.855 280.7 13.7 277 10.2
2007-05-31 07:32:49 51°14.712 2°53.831 281.7 13.7 277 9.8
2007-05-31 07:32:55 51°14.715 2°53.795 282.6 13.6 278 10
2007-05-31 07:33:00 51°14.718 2°53.765 283.4 13.6 278 10.2
2007-05-31 07:33:05 51°14.721 2°53.735 284 13.6 279 10.2
2007-05-31 07:33:09 51°14.723 2°53.711 284.6 13.7 278 9.8
2007-05-31 07:33:15 51°14.727 2°53.676 285 13.7 278 9.6
2007-05-31 07:33:20 51°14.729 2°53.646 285 13.7 278 9.8
2007-05-31 07:33:25 51°14.732 2°53.616 284.7 13.7 278 9.5
2007-05-31 07:33:30 51°14.734 2°53.585 284.6 13.8 278 9.5
2007-05-31 07:33:35 51°14.737 2°53.555 284.5 13.8 277 9.5
2007-05-31 07:33:40 51°14.74 2°53.525 284.4 13.8 278 10
2007-05-31 07:33:45 51°14.742 2°53.495 284.4 13.8 278 10
2007-05-31 07:33:50 51°14.745 2°53.465 284.4 13.8 278 9.7
2007-05-31 07:33:55 51°14.748 2°53.434 284.7 13.8 279 10
2007-05-31 07:34:00 51°14.751 2°53.404 285.1 13.8 279 10
2007-05-31 07:34:05 51°14.754 2°53.374 285.3 13.8 279 9.8
2007-05-31 07:34:10 51°14.757 2°53.344 285.7 13.8 278 9.6
2007-05-31 07:34:15 51°14.759 2°53.314 285.3 13.8 277 9.6
2007-05-31 07:34:20 51°14.761 2°53.283 284.5 13.8 277 9.2
2007-05-31 07:34:25 51°14.763 2°53.253 283.7 13.7 276 9.1
2007-05-31 07:34:30 51°14.765 2°53.223 283 13.7 275 8.8
2007-05-31 07:34:35 51°14.767 2°53.193 282.3 13.6 276 8.6
2007-05-31 07:34:40 51°14.768 2°53.163 282.1 13.6 275 8.6
2007-05-31 07:34:45 51°14.77 2°53.133 282 13.6 276 8.5
2007-05-31 07:34:50 51°14.772 2°53.103 282 13.6 276 8.5
2007-05-31 07:34:55 51°14.774 2°53.074 282.3 13.6 276 8.4
2007-05-31 07:35:00 51°14.776 2°53.043 282.4 13.7 276 8.4
2007-05-31 07:35:05 51°14.778 2°53.013 282.7 13.7 277 8.6
2007-05-31 07:35:10 51°14.781 2°52.983 283.2 13.8 277 8.5
2007-05-31 07:35:15 51°14.783 2°52.953 283.7 13.8 277 8.4
2007-05-31 07:35:20 51°14.785 2°52.923 284 13.8 276 8.4
2007-05-31 07:35:25 51°14.787 2°52.892 283.7 13.9 275 8.5
2007-05-31 07:35:29 51°14.788 2°52.868 282.8 13.9 274 8.5
2007-05-31 07:35:35 51°14.789 2°52.831 281.4 14 273 8.6
2007-05-31 07:35:40 51°14.79 2°52.8 280.2 14 271 8.6
2007-05-31 07:35:45 51°14.79 2°52.769 278.6 14 271 8.6
2007-05-31 07:35:50 51°14.79 2°52.738 277.5 14.1 270 8.6
2007-05-31 07:35:55 51°14.789 2°52.707 276.5 14.1 269 8.5
2007-05-31 07:35:59 51°14.789 2°52.682 275.8 14.1 269 8.6
2007-05-31 07:36:05 51°14.788 2°52.644 275.3 14.1 269 8.6
2007-05-31 07:36:10 51°14.788 2°52.613 275 14.1 269 8.6
2007-05-31 07:36:15 51°14.788 2°52.582 275.2 14.1 270 8.6
2007-05-31 07:36:20 51°14.788 2°52.551 275.8 14.2 270 8.6
2007-05-31 07:36:25 51°14.789 2°52.52 276.7 14.1 271 8.7
2007-05-31 07:36:30 51°14.789 2°52.488 277.6 14.1 272 8.7
2007-05-31 07:36:35 51°14.79 2°52.457 278.3 14.1 272 8.7
2007-05-31 07:36:40 51°14.791 2°52.426 278.7 14.1 272 8.8
2007-05-31 07:36:44 51°14.791 2°52.401 279.2 14.1 272 8.7
2007-05-31 07:36:50 51°14.792 2°52.364 279.3 14.2 272 8.8
2007-05-31 07:36:55 51°14.793 2°52.332 279.3 14.2 271 8.8
2007-05-31 07:37:00 51°14.793 2°52.301 278.7 14.2 271 8.8
2007-05-31 07:37:05 51°14.793 2°52.269 278.2 14.2 271 8.8
2007-05-31 07:37:09 51°14.793 2°52.244 277.8 14.2 271 8.9
2007-05-31 07:37:15 51°14.793 2°52.206 277.6 14.3 270 8.9
2007-05-31 07:37:20 51°14.793 2°52.175 277 14.3 270 9
2007-05-31 07:37:25 51°14.793 2°52.143 276.5 14.3 269 9
2007-05-31 07:37:29 51°14.793 2°52.118 276.2 14.3 270 9
2007-05-31 07:37:35 51°14.793 2°52.08 276.1 14.3 270 9.1
2007-05-31 07:37:40 51°14.793 2°52.048 276.1 14.3 271 9.1
2007-05-31 07:37:45 51°14.793 2°52.017 276.8 14.3 271 9.2
2007-05-31 07:37:50 51°14.794 2°51.985 277.4 14.2 272 9.1
2007-05-31 07:37:55 51°14.794 2°51.954 277.9 14.3 272 9.3
2007-05-31 07:38:00 51°14.795 2°51.922 278.7 14.2 273 9.2
2007-05-31 07:38:05 51°14.796 2°51.891 279.1 14.2 272 9.2
2007-05-31 07:38:09 51°14.797 2°51.866 279.2 14.2 273 9.3
2007-05-31 07:38:15 51°14.797 2°51.828 279.2 14.3 271 9.3
2007-05-31 07:38:20 51°14.798 2°51.797 278.7 14.3 271 9.3
2007-05-31 07:38:25 51°14.798 2°51.765 277.9 14.3 271 9.4
2007-05-31 07:38:30 51°14.799 2°51.734 277.4 14.3 271 9.4
2007-05-31 07:38:35 51°14.799 2°51.702 277.3 14.3 270 9.5
2007-05-31 07:38:40 51°14.799 2°51.671 277.1 14.3 271 9.6
2007-05-31 07:38:45 51°14.8 2°51.639 277.1 14.3 272 9.6
2007-05-31 07:38:50 51°14.8 2°51.608 277.6 14.3 272 9.6
2007-05-31 07:38:55 51°14.801 2°51.576 278 14.3 272 9.7
2007-05-31 07:39:00 51°14.802 2°51.545 278.3 14.2 272 9.7
2007-05-31 07:39:05 51°14.802 2°51.513 278.5 14.3 272 9.8
2007-05-31 07:39:10 51°14.803 2°51.482 278.5 14.3 272 9.8
2007-05-31 07:39:15 51°14.803 2°51.45 278.5 14.3 271 9.8
2007-05-31 07:39:20 51°14.804 2°51.419 278.4 14.3 271 9.9
2007-05-31 07:39:25 51°14.804 2°51.387 278.1 14.3 271 9.9
2007-05-31 07:39:29 51°14.805 2°51.362 277.4 14.3 271 10
2007-05-31 07:39:35 51°14.805 2°51.324 277.3 14.3 271 10.1
2007-05-31 07:39:40 51°14.805 2°51.292 277.3 14.3 271 10.1
2007-05-31 07:39:45 51°14.805 2°51.26 277.3 14.3 271 10.1
2007-05-31 07:39:49 51°14.806 2°51.235 277.3 14.3 271 10.1
2007-05-31 07:39:55 51°14.806 2°51.197 277.3 14.3 271 10.2
2007-05-31 07:40:00 51°14.807 2°51.165 277.4 14.3 271 10.2
2007-05-31 07:40:05 51°14.807 2°51.134 277.6 14.3 271 10.3
2007-05-31 07:40:10 51°14.808 2°51.102 277.7 14.4 272 10.3
2007-05-31 07:40:15 51°14.808 2°51.07 277.9 14.3 271 10.3
2007-05-31 07:40:20 51°14.809 2°51.039 278.1 14.3 271 10.4
2007-05-31 07:40:25 51°14.809 2°51.007 278.2 14.3 271 10.4
2007-05-31 07:40:30 51°14.81 2°50.976 278 14.3 271 10.5
2007-05-31 07:40:35 51°14.811 2°50.944 277.9 14.3 271 10.6
2007-05-31 07:40:40 51°14.811 2°50.912 277.9 14.3 271 10.6
2007-05-31 07:40:45 51°14.811 2°50.88 277.6 14.3 271 10.7
2007-05-31 07:40:50 51°14.811 2°50.849 277.8 14.3 271 10.7
2007-05-31 07:40:55 51°14.81 2°50.817 277.8 14.3 266 10.8
2007-05-31 07:41:00 51°14.808 2°50.786 274.9 14.3 265 10.8
2007-05-31 07:41:04 51°14.806 2°50.761 271.1 14.3 262 10.8
2007-05-31 07:41:10 51°14.802 2°50.723 268.6 14.3 261 10.8
2007-05-31 07:41:15 51°14.798 2°50.692 266.6 14.3 260 10.8
2007-05-31 07:41:20 51°14.794 2°50.661 265.6 14.3 259 10.8
2007-05-31 07:41:25 51°14.79 2°50.63 264.1 14.4 258 10.9
2007-05-31 07:41:30 51°14.786 2°50.598 263.4 14.4 257 10.9
2007-05-31 07:41:35 51°14.781 2°50.567 262.4 14.4 257 11
2007-05-31 07:41:40 51°14.776 2°50.536 261.8 14.4 256 11
2007-05-31 07:41:45 51°14.772 2°50.505 261.3 14.4 256 11
2007-05-31 07:41:49 51°14.768 2°50.481 260.8 14.4 256 11
2007-05-31 07:41:55 51°14.762 2°50.444 260.5 14.4 255 11
2007-05-31 07:42:00 51°14.757 2°50.413 260.2 14.4 256 11
2007-05-31 07:42:05 51°14.752 2°50.382 260.2 14.5 255 11
2007-05-31 07:42:09 51°14.748 2°50.357 260 14.4 256 11.1
2007-05-31 07:42:15 51°14.742 2°50.32 260.2 14.5 256 11
2007-05-31 07:42:20 51°14.737 2°50.288 260.4 14.5 257 11.1
2007-05-31 07:42:25 51°14.733 2°50.257 261.2 14.5 258 11.1
2007-05-31 07:42:30 51°14.729 2°50.226 261.9 14.5 257 11.1
2007-05-31 07:42:35 51°14.724 2°50.195 262 14.5 258 11.1
2007-05-31 07:42:40 51°14.72 2°50.163 262.3 14.5 258 11.1
2007-05-31 07:42:45 51°14.716 2°50.132 262.4 14.5 258 11.2
2007-05-31 07:42:50 51°14.712 2°50.101 262.6 14.5 258 11.1
2007-05-31 07:42:55 51°14.708 2°50.069 262.5 14.4 258 11.1
2007-05-31 07:43:00 51°14.703 2°50.038 262.5 14.5 258 11.3
2007-05-31 07:43:05 51°14.699 2°50.007 262.2 14.4 257 11.2
2007-05-31 07:43:10 51°14.695 2°49.976 262.1 14.5 258 11.2
2007-05-31 07:43:15 51°14.69 2°49.944 262 14.4 258 11.2
2007-05-31 07:43:20 51°14.686 2°49.913 262.3 14.4 258 11.3
2007-05-31 07:43:25 51°14.682 2°49.882 262.1 14.4 258 11.3
2007-05-31 07:43:30 51°14.678 2°49.851 262.4 14.4 258 11.3
2007-05-31 07:43:35 51°14.673 2°49.82 262.7 14.4 258 11.3
2007-05-31 07:43:40 51°14.669 2°49.788 262.7 14.4 258 11.3
2007-05-31 07:43:45 51°14.665 2°49.757 262.7 14.5 258 11.3
2007-05-31 07:43:50 51°14.66 2°49.726 262.6 14.4 258 11.3
2007-05-31 07:43:55 51°14.656 2°49.695 262.6 14.4 257 11.3
2007-05-31 07:44:00 51°14.652 2°49.664 262.4 14.4 257 11.3
2007-05-31 07:44:05 51°14.647 2°49.633 262.3 14.5 257 11.3
2007-05-31 07:44:09 51°14.644 2°49.608 262 14.4 258 11.3
2007-05-31 07:44:15 51°14.639 2°49.571 262.3 14.4 257 11.3
2007-05-31 07:44:20 51°14.634 2°49.539 262.3 14.5 258 11.3
2007-05-31 07:44:25 51°14.63 2°49.508 262.4 14.4 258 11.2
2007-05-31 07:44:30 51°14.626 2°49.477 262.6 14.4 258 11.2
2007-05-31 07:44:35 51°14.622 2°49.446 262.6 14.5 258 11.3
2007-05-31 07:44:40 51°14.618 2°49.415 262.6 14.5 258 11.3
2007-05-31 07:44:45 51°14.613 2°49.383 262.4 14.5 257 11.3
2007-05-31 07:44:49 51°14.61 2°49.358 262.1 14.5 258 11.3
2007-05-31 07:44:55 51°14.605 2°49.321 262.5 14.4 258 11.2
2007-05-31 07:45:00 51°14.6 2°49.29 262.7 14.5 258 11.4
2007-05-31 07:45:05 51°14.596 2°49.258 262.7 14.5 258 11.2
2007-05-31 07:45:10 51°14.592 2°49.227 262.7 14.5 258 11.3
2007-05-31 07:45:15 51°14.588 2°49.196 262.7 14.5 258 11.3
2007-05-31 07:45:20 51°14.584 2°49.164 262.6 14.5 259 11.3
2007-05-31 07:45:25 51°14.579 2°49.133 263 14.5 257 11.3
2007-05-31 07:45:30 51°14.575 2°49.101 263.1 14.5 259 11.3
2007-05-31 07:45:35 51°14.571 2°49.07 263 14.6 257 11.3
2007-05-31 07:45:40 51°14.567 2°49.038 262.8 14.6 258 11.3
2007-05-31 07:45:45 51°14.562 2°49.007 262.7 14.5 258 11.3
2007-05-31 07:45:50 51°14.558 2°48.976 262.9 14.5 258 11.3
2007-05-31 07:45:55 51°14.554 2°48.944 262.6 14.6 257 11.3
2007-05-31 07:46:00 51°14.55 2°48.913 262.4 14.5 258 11.3
2007-05-31 07:46:05 51°14.545 2°48.881 262.7 14.5 258 11.3
2007-05-31 07:46:10 51°14.541 2°48.85 262.7 14.5 259 11.3
2007-05-31 07:46:15 51°14.537 2°48.818 263.3 14.5 258 11.3
2007-05-31 07:46:20 51°14.533 2°48.787 263.3 14.5 259 11.2
2007-05-31 07:46:25 51°14.529 2°48.755 263.4 14.5 258 11.3
2007-05-31 07:46:29 51°14.526 2°48.73 263.4 14.6 258 11.3
2007-05-31 07:46:35 51°14.521 2°48.692 263.3 14.5 258 11.2
2007-05-31 07:46:40 51°14.516 2°48.661 263.3 14.5 258 11.3
2007-05-31 07:46:45 51°14.512 2°48.629 263.1 14.5 258 11.2
2007-05-31 07:46:50 51°14.508 2°48.598 263.1 14.5 258 11.2
2007-05-31 07:46:55 51°14.504 2°48.566 262.9 14.5 258 11.2
2007-05-31 07:47:00 51°14.499 2°48.535 262.7 14.5 258 11.2
2007-05-31 07:47:05 51°14.495 2°48.504 262.8 14.5 258 11.2
2007-05-31 07:47:10 51°14.491 2°48.472 263 14.5 258 11.1
2007-05-31 07:47:15 51°14.486 2°48.441 263.1 14.5 257 11.1
2007-05-31 07:47:20 51°14.481 2°48.41 262.2 14.5 256 11.1
2007-05-31 07:47:25 51°14.476 2°48.379 261.5 14.5 256 11.1
2007-05-31 07:47:30 51°14.471 2°48.348 261.1 14.5 256 11.1
2007-05-31 07:47:35 51°14.466 2°48.317 260.6 14.5 255 11.1
2007-05-31 07:47:40 51°14.462 2°48.286 260.2 14.5 256 11
2007-05-31 07:47:45 51°14.456 2°48.255 260.3 14.5 255 10.9
2007-05-31 07:47:50 51°14.451 2°48.224 260.5 14.5 257 11
2007-05-31 07:47:55 51°14.447 2°48.193 260.8 14.4 256 10.9
2007-05-31 07:48:00 51°14.442 2°48.161 261.1 14.4 257 10.9
2007-05-31 07:48:05 51°14.437 2°48.13 261.5 14.5 256 10.9
2007-05-31 07:48:10 51°14.433 2°48.099 261.6 14.5 257 11
2007-05-31 07:48:15 51°14.428 2°48.068 261.7 14.4 256 10.8
2007-05-31 07:48:19 51°14.424 2°48.043 261.7 14.4 257 10.7
2007-05-31 07:48:24 51°14.419 2°48.013 261.5 14.4 256 10.8
2007-05-31 07:48:29 51°14.415 2°47.982 261.3 14.5 256 10.8
2007-05-31 07:48:35 51°14.409 2°47.945 260.8 14.4 256 10.4
2007-05-31 07:48:40 51°14.403 2°47.914 260.8 14.4 255 10.5
2007-05-31 07:48:44 51°14.4 2°47.889 260.4 14.4 256 10.7
2007-05-31 07:48:49 51°14.395 2°47.858 260.5 14.4 256 10.6
2007-05-31 07:48:55 51°14.389 2°47.821 260.9 14.4 256 10.5
2007-05-31 07:49:00 51°14.384 2°47.79 260.7 14.4 256 10.3
2007-05-31 07:49:04 51°14.38 2°47.765 261.1 14.4 256 10.3
2007-05-31 07:49:09 51°14.376 2°47.735 261.2 14.4 256 10.3
2007-05-31 07:49:14 51°14.371 2°47.704 261.2 14.4 256 10.2
2007-05-31 07:49:20 51°14.365 2°47.667 261.1 14.3 256 10
2007-05-31 07:49:25 51°14.36 2°47.636 261.1 14.4 256 10.1
2007-05-31 07:49:29 51°14.357 2°47.611 261.2 14.4 256 9.8
2007-05-31 07:49:35 51°14.351 2°47.575 261.2 14.3 256 9.5
2007-05-31 07:49:40 51°14.346 2°47.544 261.4 14.3 256 9.8
2007-05-31 07:49:45 51°14.341 2°47.513 261.2 14.3 256 9.9
2007-05-31 07:49:49 51°14.337 2°47.489 261.1 14.3 256 9.7
2007-05-31 07:49:55 51°14.331 2°47.452 260.6 14.3 255 9.6
2007-05-31 07:49:59 51°14.327 2°47.428 260.5 14.3 255 9.1
2007-05-31 07:50:05 51°14.321 2°47.391 260.2 14.2 255 9.4
2007-05-31 07:50:09 51°14.318 2°47.367 260.4 14.2 256 9.2
2007-05-31 07:50:15 51°14.312 2°47.331 260.5 14.2 256 9.2
2007-05-31 07:50:20 51°14.307 2°47.3 260.9 14.2 257 8.8
2007-05-31 07:50:24 51°14.304 2°47.276 261.4 14.1 257 8.9
2007-05-31 07:50:29 51°14.299 2°47.245 261.9 14.1 257 9
2007-05-31 07:50:35 51°14.294 2°47.209 262 14.1 256 8.5
2007-05-31 07:50:39 51°14.29 2°47.185 261.9 14.1 256 8.5
2007-05-31 07:50:44 51°14.285 2°47.154 261.5 14.1 256 8.9
2007-05-31 07:50:50 51°14.28 2°47.118 261 14.1 256 8.6
2007-05-31 07:50:55 51°14.275 2°47.088 260.9 14.1 256 8.5
2007-05-31 07:51:00 51°14.27 2°47.058 260.5 14.1 256 8.7
2007-05-31 07:51:05 51°14.266 2°47.028 260.7 14.1 257 8.7
2007-05-31 07:51:09 51°14.262 2°47.003 260.9 14.1 257 8.6
2007-05-31 07:51:15 51°14.257 2°46.967 261.5 14.2 257 8.7
2007-05-31 07:51:20 51°14.252 2°46.936 261.8 14.1 257 8.7
2007-05-31 07:51:24 51°14.249 2°46.912 261.9 14.1 257 8.5
2007-05-31 07:51:29 51°14.245 2°46.882 262.2 14.1 257 8.7
2007-05-31 07:51:34 51°14.241 2°46.851 262.2 14.2 258 8.9
2007-05-31 07:51:40 51°14.235 2°46.814 262.4 14.2 257 8.6
2007-05-31 07:51:45 51°14.231 2°46.783 262.7 14.3 258 8.8
2007-05-31 07:51:49 51°14.228 2°46.759 262.7 14.2 258 9
2007-05-31 07:51:54 51°14.223 2°46.728 262.7 14.3 256 9
2007-05-31 07:51:59 51°14.219 2°46.698 261.9 14.2 256 8.9
2007-05-31 07:52:05 51°14.212 2°46.661 261.2 14.3 254 9.2
2007-05-31 07:52:09 51°14.208 2°46.637 260 14.3 255 8.8
2007-05-31 07:52:15 51°14.201 2°46.601 259.3 14.3 252 9.2
2007-05-31 07:52:19 51°14.197 2°46.576 258.3 14.3 254 9.2
2007-05-31 07:52:25 51°14.19 2°46.54 257.8 14.3 252 9.2
2007-05-31 07:52:30 51°14.184 2°46.51 257.3 14.3 253 9.2
2007-05-31 07:52:35 51°14.178 2°46.48 256.9 14.3 253 9.3
2007-05-31 07:52:39 51°14.173 2°46.455 257.5 14.4 253 9.4
2007-05-31 07:52:44 51°14.168 2°46.425 257.5 14.3 254 9.3
2007-05-31 07:52:49 51°14.162 2°46.395 257.9 14.3 254 9.7
2007-05-31 07:52:55 51°14.156 2°46.358 258.2 14.3 254 9.4
2007-05-31 07:53:00 51°14.15 2°46.328 258.8 14.3 254 9.3
2007-05-31 07:53:04 51°14.146 2°46.303 259 14.4 254 9.4
2007-05-31 07:53:09 51°14.141 2°46.272 259 14.4 254 9.8
2007-05-31 07:53:15 51°14.134 2°46.236 258.7 14.4 254 9.8
2007-05-31 07:53:19 51°14.129 2°46.212 258.3 14.4 253 9.8
2007-05-31 07:53:24 51°14.124 2°46.181 258.2 14.4 253 10
2007-05-31 07:53:29 51°14.118 2°46.151 257.9 14.4 253 10
2007-05-31 07:53:35 51°14.111 2°46.114 257.6 14.4 253 10.1
2007-05-31 07:53:40 51°14.105 2°46.084 257.6 14.4 253 10.2
2007-05-31 07:53:45 51°14.099 2°46.053 257.6 14.4 254 10.3
2007-05-31 07:53:49 51°14.094 2°46.029 257.8 14.4 254 10.3
2007-05-31 07:53:55 51°14.088 2°45.992 257.9 14.4 254 10.4
2007-05-31 07:54:00 51°14.082 2°45.962 258.4 14.4 254 10.5
2007-05-31 07:54:04 51°14.078 2°45.937 258.3 14.4 253 10.4
2007-05-31 07:54:09 51°14.072 2°45.907 258.3 14.4 253 10.4
2007-05-31 07:54:14 51°14.066 2°45.876 258.1 14.4 253 10.5
2007-05-31 07:54:20 51°14.06 2°45.84 257.9 14.4 254 10.6
2007-05-31 07:54:25 51°14.053 2°45.81 257.9 14.4 252 10.6
2007-05-31 07:54:29 51°14.049 2°45.785 257.5 14.4 253 10.6
2007-05-31 07:54:35 51°14.042 2°45.749 257.4 14.4 253 10.7
2007-05-31 07:54:39 51°14.037 2°45.724 257.6 14.4 253 10.7
2007-05-31 07:54:45 51°14.03 2°45.688 257.6 14.4 253 10.8
2007-05-31 07:54:49 51°14.026 2°45.663 257.8 14.4 253 10.9
2007-05-31 07:54:55 51°14.019 2°45.627 258 14.4 253 10.9
2007-05-31 07:54:59 51°14.014 2°45.603 258.1 14.4 253 10.9
2007-05-31 07:55:04 51°14.008 2°45.572 258.2 14.4 253 11
2007-05-31 07:55:10 51°14.001 2°45.536 258 14.4 253 11
2007-05-31 07:55:15 51°13.996 2°45.506 258 14.3 253 11.1
2007-05-31 07:55:20 51°13.99 2°45.475 257.8 14.4 253 11.1
2007-05-31 07:55:24 51°13.985 2°45.451 257.8 14.4 253 11
2007-05-31 07:55:29 51°13.98 2°45.42 257.8 14.4 253 11.2
2007-05-31 07:55:35 51°13.973 2°45.384 258 14.4 253 11.2
2007-05-31 07:55:40 51°13.967 2°45.354 258 14.4 253 11.2
2007-05-31 07:55:44 51°13.962 2°45.33 257.7 14.4 253 11.2
2007-05-31 07:55:49 51°13.956 2°45.299 257.7 14.4 253 11.3
2007-05-31 07:55:55 51°13.949 2°45.263 257.6 14.4 253 11.2
2007-05-31 07:56:00 51°13.943 2°45.232 257.6 14.4 253 11.2
2007-05-31 07:56:05 51°13.937 2°45.202 257.9 14.3 253 11.3
2007-05-31 07:56:09 51°13.933 2°45.178 257.8 14.4 253 11.2
2007-05-31 07:56:15 51°13.926 2°45.141 258 14.4 253 11.1
2007-05-31 07:56:20 51°13.92 2°45.111 257.8 14.4 253 11.2
2007-05-31 07:56:25 51°13.914 2°45.08 258 14.3 253 11.1
2007-05-31 07:56:29 51°13.91 2°45.056 258.2 14.4 253 11.2
2007-05-31 07:56:35 51°13.902 2°45.02 258.2 14.4 253 11.2
2007-05-31 07:56:39 51°13.898 2°44.996 258.1 14.4 253 11.1
2007-05-31 07:56:45 51°13.891 2°44.959 258.1 14.4 253 11.2
2007-05-31 07:56:49 51°13.886 2°44.935 258 14.3 253 11.2
2007-05-31 07:56:55 51°13.879 2°44.898 258.2 14.4 253 11.1
2007-05-31 07:56:59 51°13.875 2°44.874 258.2 14.3 253 11.1
2007-05-31 07:57:05 51°13.868 2°44.838 258.3 14.3 253 11.1
2007-05-31 07:57:09 51°13.863 2°44.814 258.3 14.3 253 11
2007-05-31 07:57:15 51°13.856 2°44.777 258.1 14.3 253 10.9
2007-05-31 07:57:19 51°13.852 2°44.753 258.2 14.3 253 10.7
2007-05-31 07:57:24 51°13.846 2°44.723 258.2 14.2 254 10.7
2007-05-31 07:57:30 51°13.839 2°44.687 258.3 14.2 253 10.8
2007-05-31 07:57:35 51°13.833 2°44.657 258.2 14.3 253 10.8
2007-05-31 07:57:40 51°13.828 2°44.627 258.1 14.2 253 10.6
2007-05-31 07:57:44 51°13.823 2°44.603 258.1 14.1 253 10.6
2007-05-31 07:57:50 51°13.816 2°44.567 257.7 14.2 253 10.3
2007-05-31 07:57:55 51°13.811 2°44.537 257.6 14.1 253 10.2
2007-05-31 07:58:00 51°13.805 2°44.507 258 14.1 253 10.1
2007-05-31 07:58:04 51°13.8 2°44.484 258.1 14 253 9.7
2007-05-31 07:58:09 51°13.795 2°44.454 257.9 14 253 9.8
2007-05-31 07:58:14 51°13.789 2°44.424 258 14 253 9.5
2007-05-31 07:58:20 51°13.783 2°44.389 258.2 14 253 9.5
2007-05-31 07:58:25 51°13.777 2°44.359 258.2 14 253 9.3
2007-05-31 07:58:29 51°13.773 2°44.336 257.8 14 254 8.8
2007-05-31 07:58:34 51°13.767 2°44.306 258.2 13.9 253 9
2007-05-31 07:58:40 51°13.76 2°44.271 258.3 13.9 253 8.5
2007-05-31 07:58:45 51°13.755 2°44.242 257.7 13.9 253 8.5
2007-05-31 07:58:49 51°13.75 2°44.219 257.3 13.8 252 8.4
2007-05-31 07:58:55 51°13.743 2°44.184 257.2 13.8 252 8.5
2007-05-31 07:58:59 51°13.739 2°44.16 256.8 13.8 253 8.1
2007-05-31 07:59:05 51°13.732 2°44.126 256.8 13.7 252 8
2007-05-31 07:59:10 51°13.726 2°44.096 257.1 13.8 253 8
2007-05-31 07:59:15 51°13.721 2°44.067 257 13.8 253 7.8
2007-05-31 07:59:19 51°13.716 2°44.044 257.3 13.7 253 8.1
2007-05-31 07:59:25 51°13.709 2°44.009 257 13.7 253 8
2007-05-31 07:59:29 51°13.704 2°43.986 257.2 13.7 252 7.8
2007-05-31 07:59:35 51°13.698 2°43.952 257.2 13.7 253 7.7
2007-05-31 07:59:40 51°13.693 2°43.922 257 13.7 254 7.6
2007-05-31 07:59:44 51°13.688 2°43.899 257.8 13.7 254 7.8
2007-05-31 07:59:50 51°13.683 2°43.864 258.1 13.7 256 7.7
2007-05-31 07:59:55 51°13.678 2°43.835 259.2 13.7 256 8
2007-05-31 07:59:59 51°13.674 2°43.811 260 13.8 257 8.2
2007-05-31 08:00:04 51°13.67 2°43.781 260.8 13.9 257 8.4
2007-05-31 08:00:10 51°13.665 2°43.745 261.5 13.9 258 8.4
2007-05-31 08:00:15 51°13.661 2°43.715 262.2 14 258 8.4
2007-05-31 08:00:20 51°13.657 2°43.685 262.3 14 257 8.5
2007-05-31 08:00:25 51°13.652 2°43.654 262 14 256 8.6
2007-05-31 08:00:29 51°13.648 2°43.63 261.5 14.1 255 8.8
2007-05-31 08:00:35 51°13.642 2°43.594 260.7 14.1 255 8.8
2007-05-31 08:00:40 51°13.637 2°43.564 259.5 14.1 254 9
2007-05-31 08:00:45 51°13.631 2°43.534 258.7 14.1 254 9.2
2007-05-31 08:00:49 51°13.627 2°43.511 257.8 14.1 253 9
2007-05-31 08:00:54 51°13.621 2°43.481 257.4 14.1 253 9.2
2007-05-31 08:01:00 51°13.614 2°43.445 257.1 14.1 253 9.4
2007-05-31 08:01:05 51°13.608 2°43.415 256.8 14.1 253 9.3
2007-05-31 08:01:09 51°13.604 2°43.391 257 14.2 254 9.5
2007-05-31 08:01:15 51°13.597 2°43.355 257.4 14.2 254 9.6
2007-05-31 08:01:19 51°13.593 2°43.331 257.8 14.1 255 9.7
2007-05-31 08:01:25 51°13.587 2°43.295 258.4 14.1 254 9.8
2007-05-31 08:01:30 51°13.582 2°43.265 258.4 14.1 255 9.8
2007-05-31 08:01:35 51°13.576 2°43.235 258.5 14.1 254 10
2007-05-31 08:01:39 51°13.572 2°43.211 258.5 14.1 254 10
2007-05-31 08:01:45 51°13.565 2°43.175 258.3 14.1 254 10.2
2007-05-31 08:01:50 51°13.56 2°43.145 257.9 14.1 254 10.3
2007-05-31 08:01:55 51°13.554 2°43.115 257.8 14.1 254 10.4
2007-05-31 08:02:00 51°13.549 2°43.085 257.8 14.1 253 10.5
2007-05-31 08:02:04 51°13.545 2°43.062 257.9 14.1 254 10.5
2007-05-31 08:02:10 51°13.538 2°43.026 257.6 14.1 254 10.6
2007-05-31 08:02:15 51°13.533 2°42.996 258.2 14.1 254 10.8
2007-05-31 08:02:20 51°13.527 2°42.966 258.2 14.1 254 10.8
2007-05-31 08:02:24 51°13.523 2°42.942 258.2 14.1 254 10.8
2007-05-31 08:02:29 51°13.518 2°42.912 258.3 14.1 254 11
2007-05-31 08:02:35 51°13.511 2°42.876 258.4 14.1 254 11
2007-05-31 08:02:40 51°13.506 2°42.846 258.4 14.1 254 11.1
2007-05-31 08:02:45 51°13.5 2°42.816 258.4 14.1 254 11.2
2007-05-31 08:02:49 51°13.496 2°42.792 258.3 14.1 253 11.2
2007-05-31 08:02:55 51°13.489 2°42.756 258.1 14.1 253 11.2
2007-05-31 08:03:00 51°13.484 2°42.726 257.9 14.1 253 11.3
2007-05-31 08:03:05 51°13.478 2°42.696 257.7 14.1 253 11.4
2007-05-31 08:03:09 51°13.473 2°42.672 257.8 14.2 254 11.4
2007-05-31 08:03:15 51°13.467 2°42.636 257.9 14.2 254 11.4
2007-05-31 08:03:20 51°13.461 2°42.606 258.2 14.1 254 11.5
2007-05-31 08:03:25 51°13.456 2°42.576 258.3 14.2 253 11.5
2007-05-31 08:03:29 51°13.452 2°42.552 258.3 14.1 254 11.6
2007-05-31 08:03:35 51°13.445 2°42.516 258.7 14.2 253 11.6
2007-05-31 08:03:40 51°13.44 2°42.486 258.5 14.2 254 11.6
2007-05-31 08:03:45 51°13.434 2°42.456 258.4 14.2 253 11.7
2007-05-31 08:03:49 51°13.429 2°42.432 258.3 14.2 253 11.7
2007-05-31 08:03:55 51°13.422 2°42.396 258.1 14.2 253 11.8
2007-05-31 08:03:59 51°13.418 2°42.372 258 14.2 253 11.8
2007-05-31 08:04:05 51°13.411 2°42.336 257.8 14.2 253 11.9
2007-05-31 08:04:10 51°13.405 2°42.306 257.6 14.2 253 11.8
2007-05-31 08:04:15 51°13.399 2°42.276 257.4 14.3 252 11.8
2007-05-31 08:04:20 51°13.393 2°42.246 257.3 14.2 253 11.8
2007-05-31 08:04:25 51°13.387 2°42.216 257.6 14.2 252 12
2007-05-31 08:04:30 51°13.381 2°42.186 257.5 14.3 253 11.9
2007-05-31 08:04:35 51°13.375 2°42.156 257.5 14.3 253 12.1
2007-05-31 08:04:40 51°13.369 2°42.125 257.7 14.3 253 12
2007-05-31 08:04:44 51°13.365 2°42.101 257.6 14.3 253 12.1
2007-05-31 08:04:49 51°13.359 2°42.071 257.6 14.3 253 12.2
2007-05-31 08:04:55 51°13.352 2°42.035 258.2 14.3 253 12.3
2007-05-31 08:05:00 51°13.346 2°42.004 258.3 14.4 253 12.3
2007-05-31 08:05:05 51°13.34 2°41.974 258.3 14.4 253 12.3
2007-05-31 08:05:09 51°13.335 2°41.95 258.2 14.4 253 12.4
2007-05-31 08:05:15 51°13.328 2°41.913 258.2 14.4 253 12.5
2007-05-31 08:05:20 51°13.323 2°41.883 258.1 14.4 253 12.6
2007-05-31 08:05:25 51°13.317 2°41.853 258.1 14.4 253 12.6
2007-05-31 08:05:29 51°13.312 2°41.828 258.3 14.4 253 12.7
2007-05-31 08:05:35 51°13.305 2°41.792 258.3 14.3 253 12.6
2007-05-31 08:05:40 51°13.3 2°41.761 258.6 14.4 254 12.6
2007-05-31 08:05:45 51°13.294 2°41.731 258.5 14.4 253 12.8
2007-05-31 08:05:50 51°13.289 2°41.7 258.9 14.4 254 12.8
2007-05-31 08:05:55 51°13.283 2°41.67 259.1 14.4 253 12.8
2007-05-31 08:06:00 51°13.277 2°41.639 258.9 14.4 254 12.9
2007-05-31 08:06:05 51°13.271 2°41.609 259.1 14.5 253 12.8
2007-05-31 08:06:09 51°13.267 2°41.585 258.5 14.4 253 12.8
2007-05-31 08:06:15 51°13.26 2°41.548 258.3 14.4 253 12.9
2007-05-31 08:06:20 51°13.254 2°41.518 258 14.4 253 12.7
2007-05-31 08:06:24 51°13.249 2°41.493 257.8 14.4 252 12.8
2007-05-31 08:06:30 51°13.242 2°41.457 257.6 14.4 253 12.8
2007-05-31 08:06:35 51°13.236 2°41.427 258 14.4 253 12.8
2007-05-31 08:06:39 51°13.232 2°41.402 258.2 14.3 253 12.9
2007-05-31 08:06:44 51°13.226 2°41.372 258.3 14.4 253 12.9
2007-05-31 08:06:50 51°13.219 2°41.335 258.3 14.4 253 12.9
2007-05-31 08:06:55 51°13.213 2°41.305 258.4 14.3 253 13.1
2007-05-31 08:07:00 51°13.207 2°41.275 258.5 14.3 253 13
2007-05-31 08:07:05 51°13.201 2°41.245 258.4 14.4 253 12.3
2007-05-31 08:07:09 51°13.197 2°41.22 258.3 14.3 253 12.6
2007-05-31 08:07:15 51°13.189 2°41.184 258 14.4 252 12.8
2007-05-31 08:07:20 51°13.183 2°41.154 257.7 14.4 253 12.7
2007-05-31 08:07:24 51°13.178 2°41.13 257.7 14.4 252 12.8
2007-05-31 08:07:29 51°13.173 2°41.099 257.6 14.4 253 12.9
2007-05-31 08:07:34 51°13.166 2°41.069 257.6 14.4 252 12.6
2007-05-31 08:07:40 51°13.159 2°41.033 257.2 14.4 253 12.6
2007-05-31 08:07:45 51°13.153 2°41.003 257.6 14.4 252 12.5
2007-05-31 08:07:49 51°13.149 2°40.978 258 14.4 254 12.7
2007-05-31 08:07:55 51°13.142 2°40.942 258.4 14.4 253 12.7
2007-05-31 08:08:00 51°13.136 2°40.911 258.8 14.4 254 12.7
2007-05-31 08:08:05 51°13.13 2°40.881 258.4 14.4 253 12.8
2007-05-31 08:08:09 51°13.126 2°40.857 258.9 14.4 253 12.7
2007-05-31 08:08:15 51°13.119 2°40.82 258.6 14.4 253 12.8
2007-05-31 08:08:19 51°13.114 2°40.796 258.6 14.4 253 12.9
2007-05-31 08:08:25 51°13.107 2°40.759 258.5 14.4 253 12.9
2007-05-31 08:08:30 51°13.101 2°40.729 258.3 14.4 253 12.8
2007-05-31 08:08:35 51°13.096 2°40.699 258.2 14.3 253 12.8
2007-05-31 08:08:40 51°13.09 2°40.668 258.6 14.4 253 12.8
2007-05-31 08:08:45 51°13.084 2°40.638 258.1 14.3 254 12.6
2007-05-31 08:08:50 51°13.078 2°40.608 258.4 14.3 252 12.7
2007-05-31 08:08:55 51°13.072 2°40.577 258.1 14.3 254 12.7
2007-05-31 08:09:00 51°13.066 2°40.547 258.3 14.4 252 13
2007-05-31 08:09:04 51°13.062 2°40.523 258 14.4 253 13
2007-05-31 08:09:10 51°13.054 2°40.487 257.7 14.4 252 12.8
2007-05-31 08:09:15 51°13.048 2°40.456 257.8 14.4 253 12.5
2007-05-31 08:09:20 51°13.042 2°40.426 258 14.3 252 12.3
2007-05-31 08:09:25 51°13.037 2°40.396 258.1 14.3 253 12.5
2007-05-31 08:09:29 51°13.032 2°40.371 258 14.4 253 12.7
2007-05-31 08:09:35 51°13.025 2°40.335 258.5 14.4 253 12.7
2007-05-31 08:09:40 51°13.019 2°40.305 258.7 14.4 252 12.8
2007-05-31 08:09:45 51°13.013 2°40.275 258.2 14.4 252 12.7
2007-05-31 08:09:49 51°13.008 2°40.251 257.6 14.4 251 12.7
2007-05-31 08:09:55 51°13 2°40.215 256.8 14.3 251 12.8
2007-05-31 08:10:00 51°12.993 2°40.185 256.1 14.4 250 12.7
2007-05-31 08:10:05 51°12.986 2°40.155 255.9 14.3 250 11.7
2007-05-31 08:10:09 51°12.981 2°40.131 255.3 14.3 249 12
2007-05-31 08:10:15 51°12.973 2°40.096 254.7 14.3 250 12.7
2007-05-31 08:10:20 51°12.966 2°40.066 254.9 14.5 250 12.8
2007-05-31 08:10:25 51°12.959 2°40.036 254.7 14.5 250 12.9
2007-05-31 08:10:29 51°12.953 2°40.012 254.7 14.4 250 12.9
2007-05-31 08:10:35 51°12.945 2°39.976 255 14.4 250 13
2007-05-31 08:10:39 51°12.94 2°39.952 254.9 14.4 250 12
2007-05-31 08:10:45 51°12.931 2°39.917 254.8 14.3 249 12.3
2007-05-31 08:10:50 51°12.924 2°39.887 254.9 14.3 249 12.4
2007-05-31 08:10:55 51°12.916 2°39.858 254.7 14.4 246 12.7
2007-05-31 08:11:00 51°12.907 2°39.83 252.1 14.3 243 12.5
2007-05-31 08:11:04 51°12.9 2°39.807 248.9 14.4 242 11
2007-05-31 08:11:10 51°12.888 2°39.774 246.8 14.3 241 12.5
2007-05-31 08:11:15 51°12.878 2°39.747 245.5 14.3 239 13.1
2007-05-31 08:11:20 51°12.867 2°39.72 244.2 14.4 239 13
2007-05-31 08:11:24 51°12.859 2°39.698 242.7 14.5 239 13
2007-05-31 08:11:30 51°12.846 2°39.666 242.5 14.4 238 12.9
2007-05-31 08:11:35 51°12.835 2°39.639 242 14.3 238 12.8
2007-05-31 08:11:40 51°12.825 2°39.613 241.3 14.3 238 12.3
2007-05-31 08:11:45 51°12.814 2°39.586 241 14.4 237 12.8
2007-05-31 08:11:49 51°12.805 2°39.564 240.9 14.4 237 12.8
2007-05-31 08:11:55 51°12.792 2°39.533 240.9 14.3 237 12.6
2007-05-31 08:12:00 51°12.782 2°39.506 241 14.3 237 12.4
2007-05-31 08:12:05 51°12.771 2°39.479 240.9 14.4 238 12.6
2007-05-31 08:12:09 51°12.762 2°39.457 241.3 14.3 237 12.6
2007-05-31 08:12:15 51°12.749 2°39.426 241.3 14.3 237 12.2
2007-05-31 08:12:20 51°12.738 2°39.399 241.2 14.3 237 11.1
2007-05-31 08:12:25 51°12.728 2°39.373 240.9 14.4 237 12.4
2007-05-31 08:12:30 51°12.717 2°39.346 240.8 14.4 238 12.7
2007-05-31 08:12:35 51°12.706 2°39.319 241.5 14.4 237 12.7
2007-05-31 08:12:40 51°12.695 2°39.292 241.4 14.4 237 12.5
2007-05-31 08:12:45 51°12.684 2°39.267 241.3 14.4 234 12.4
2007-05-31 08:12:49 51°12.674 2°39.247 238.7 14.3 232 12.6
2007-05-31 08:12:55 51°12.659 2°39.217 236.4 14.3 231 12.8
2007-05-31 08:13:00 51°12.647 2°39.192 234.9 14.3 231 12.8
2007-05-31 08:13:05 51°12.633 2°39.169 233.8 14.3 229 12.9
2007-05-31 08:13:10 51°12.621 2°39.145 232.9 14.3 229 12.8
2007-05-31 08:13:15 51°12.607 2°39.121 232.2 14.4 228 12.8
2007-05-31 08:13:19 51°12.597 2°39.102 231.4 14.4 229 12.8
2007-05-31 08:13:24 51°12.583 2°39.078 231.1 14.3 228 12.8
2007-05-31 08:13:30 51°12.567 2°39.05 230.3 14.3 228 12.9
2007-05-31 08:13:35 51°12.554 2°39.027 230.5 14.3 227 12.9
2007-05-31 08:13:40 51°12.541 2°39.003 230.8 14.3 228 12.8
2007-05-31 08:13:45 51°12.528 2°38.98 230.7 14.4 228 12.8
2007-05-31 08:13:49 51°12.517 2°38.961 230.8 14.3 229 12.8
2007-05-31 08:13:55 51°12.501 2°38.933 231.3 14.2 228 12.7
2007-05-31 08:14:00 51°12.488 2°38.909 231 14.3 228 12.7
2007-05-31 08:14:04 51°12.477 2°38.89 230.7 14.3 228 13.1
2007-05-31 08:14:09 51°12.464 2°38.867 230.8 14.2 228 13
2007-05-31 08:14:14 51°12.451 2°38.844 230.8 14.3 228 12.9
2007-05-31 08:14:20 51°12.435 2°38.816 230.7 14.2 228 13.1
2007-05-31 08:14:25 51°12.422 2°38.792 230.6 14.2 228 13
2007-05-31 08:14:29 51°12.411 2°38.774 230.9 14.3 228 12.8
2007-05-31 08:14:35 51°12.395 2°38.745 230.8 14.3 228 12.8
2007-05-31 08:14:40 51°12.382 2°38.721 231.3 14.3 229 12.9
2007-05-31 08:14:45 51°12.369 2°38.698 231.5 14.2 228 13
2007-05-31 08:14:49 51°12.359 2°38.679 231.3 14.3 229 13.1
2007-05-31 08:14:55 51°12.343 2°38.65 231.3 14.4 229 12.9
2007-05-31 08:14:59 51°12.333 2°38.631 231.5 14.3 229 13
2007-05-31 08:15:05 51°12.317 2°38.603 231.8 14.3 229 13.1
2007-05-31 08:15:10 51°12.304 2°38.579 231.8 14.2 229 13.2
2007-05-31 08:15:15 51°12.291 2°38.556 231.8 14.2 228 13
2007-05-31 08:15:20 51°12.278 2°38.532 231.4 14.2 228 13.1
2007-05-31 08:15:25 51°12.265 2°38.508 230.9 14.3 229 13
2007-05-31 08:15:29 51°12.254 2°38.49 231.5 14.2 229 13.3
2007-05-31 08:15:35 51°12.239 2°38.461 231.5 14.2 229 13.3
2007-05-31 08:15:40 51°12.226 2°38.438 231.6 14.1 228 13.1
2007-05-31 08:15:44 51°12.215 2°38.419 231.6 14.2 229 13.2
2007-05-31 08:15:50 51°12.2 2°38.391 231.5 14.2 228 13.1
2007-05-31 08:15:55 51°12.187 2°38.367 231.5 14.3 229 13.3
2007-05-31 08:16:00 51°12.174 2°38.344 231.5 14.2 227 13.2
2007-05-31 08:16:05 51°12.161 2°38.32 231 14.2 229 13.2
2007-05-31 08:16:09 51°12.15 2°38.301 231.3 14.2 229 13.4
2007-05-31 08:16:15 51°12.135 2°38.273 231.5 14.3 229 13.1
2007-05-31 08:16:20 51°12.122 2°38.249 231.5 14.2 229 13.1
2007-05-31 08:16:25 51°12.109 2°38.226 231.7 14.2 228 13.4
2007-05-31 08:16:29 51°12.098 2°38.207 231.5 14.2 228 13.1
2007-05-31 08:16:35 51°12.083 2°38.179 231.4 14.1 229 13.3
2007-05-31 08:16:40 51°12.07 2°38.156 231.3 14.2 228 13.4
2007-05-31 08:16:45 51°12.056 2°38.132 230.9 14.2 228 13.4
2007-05-31 08:16:49 51°12.046 2°38.114 230.8 14.2 229 13.4
2007-05-31 08:16:55 51°12.03 2°38.085 231.4 14.2 228 13.4
2007-05-31 08:17:00 51°12.018 2°38.062 231.4 14.2 229 13.3
2007-05-31 08:17:05 51°12.005 2°38.038 231.6 14.2 229 13.2
2007-05-31 08:17:09 51°11.994 2°38.019 232.2 14.2 229 13.3
2007-05-31 08:17:15 51°11.979 2°37.991 232.4 14.1 229 13.2
2007-05-31 08:17:19 51°11.969 2°37.972 232.2 14.2 229 13.3
2007-05-31 08:17:25 51°11.953 2°37.944 231.9 14.2 228 13.3
2007-05-31 08:17:30 51°11.94 2°37.92 231.6 14.1 229 13.3
2007-05-31 08:17:35 51°11.927 2°37.896 231.5 14.1 229 13.4
2007-05-31 08:17:39 51°11.917 2°37.878 231.9 14.1 229 13.4
2007-05-31 08:17:45 51°11.901 2°37.85 232.1 14.1 229 13.4
2007-05-31 08:17:50 51°11.889 2°37.826 232 14.1 229 13.4
2007-05-31 08:17:55 51°11.875 2°37.803 232 14.1 227 13.3
2007-05-31 08:18:00 51°11.862 2°37.781 231 14.1 226 13.3
2007-05-31 08:18:04 51°11.851 2°37.763 229.9 14 226 13.2
2007-05-31 08:18:10 51°11.834 2°37.737 228.8 14 225 13.2
2007-05-31 08:18:15 51°11.82 2°37.715 227.9 14.1 224 13.4
2007-05-31 08:18:20 51°11.806 2°37.694 227.4 14.1 224 13.2
2007-05-31 08:18:24 51°11.795 2°37.677 226.9 14 223 13.4
2007-05-31 08:18:29 51°11.781 2°37.656 226.1 14 222 13.4
2007-05-31 08:18:35 51°11.763 2°37.631 225.2 14.1 222 13.3
2007-05-31 08:18:40 51°11.748 2°37.611 224.7 14.2 221 13.2
2007-05-31 08:18:45 51°11.733 2°37.59 223.7 14.2 222 13.4
2007-05-31 08:18:49 51°11.721 2°37.574 223.5 14.1 221 13.5
2007-05-31 08:18:55 51°11.704 2°37.549 223.4 14.1 221 13.5
2007-05-31 08:19:00 51°11.689 2°37.528 223.4 14.2 221 13.4
2007-05-31 08:19:05 51°11.674 2°37.508 223.5 14.1 221 13.4
2007-05-31 08:19:09 51°11.663 2°37.491 223.5 14.1 221 13.4
2007-05-31 08:19:15 51°11.645 2°37.466 223.5 14.1 221 13.4
2007-05-31 08:19:20 51°11.63 2°37.446 223.5 14.2 221 13.5
2007-05-31 08:19:25 51°11.615 2°37.425 223.5 14.1 221 13.4
2007-05-31 08:19:29 51°11.603 2°37.409 223.5 14.1 221 13.4
2007-05-31 08:19:35 51°11.585 2°37.384 223.5 14.1 221 13.5
2007-05-31 08:19:40 51°11.57 2°37.364 223.1 14.2 221 13.3
2007-05-31 08:19:45 51°11.556 2°37.343 223 14.1 221 13.3
2007-05-31 08:19:50 51°11.541 2°37.323 223.2 14 222 13.2
2007-05-31 08:19:55 51°11.526 2°37.302 223.9 14.1 221 13.1
2007-05-31 08:19:59 51°11.515 2°37.286 223.8 14.1 222 13.1
2007-05-31 08:20:04 51°11.5 2°37.265 223.7 14.2 221 13.1
2007-05-31 08:20:10 51°11.483 2°37.24 223.9 14.1 221 13.3
2007-05-31 08:20:15 51°11.468 2°37.22 223.9 14.1 220 13
2007-05-31 08:20:20 51°11.453 2°37.2 223.6 14 219 13.1
2007-05-31 08:20:25 51°11.436 2°37.183 222.2 14.1 215 13.2
2007-05-31 08:20:30 51°11.421 2°37.165 219 14.1 215 13.1
2007-05-31 08:20:35 51°11.404 2°37.149 217 14.1 212 13
2007-05-31 08:20:40 51°11.388 2°37.132 215.1 14 212 13.1
2007-05-31 08:20:44 51°11.374 2°37.12 213.4 14.1 211 13
2007-05-31 08:20:49 51°11.357 2°37.104 212.8 14.1 210 13
2007-05-31 08:20:55 51°11.337 2°37.085 211.9 14.1 210 12.7
2007-05-31 08:21:00 51°11.32 2°37.07 211.7 14.1 210 13
2007-05-31 08:21:05 51°11.303 2°37.055 211.6 14.1 210 12.8
2007-05-31 08:21:09 51°11.289 2°37.042 211.2 14.1 210 12.9
2007-05-31 08:21:15 51°11.269 2°37.024 211 14.1 209 12.8
2007-05-31 08:21:20 51°11.252 2°37.008 210.9 14.1 210 12.8
2007-05-31 08:21:25 51°11.235 2°36.993 210.9 14.1 209 12.7
2007-05-31 08:21:29 51°11.221 2°36.981 210.7 14.1 209 12.7
2007-05-31 08:21:35 51°11.201 2°36.962 210.4 14.2 210 12.6
2007-05-31 08:21:40 51°11.184 2°36.947 210.8 14.1 210 12.6
2007-05-31 08:21:45 51°11.167 2°36.931 211 14.1 210 12.6
2007-05-31 08:21:50 51°11.15 2°36.915 211.5 14.1 210 12.6
2007-05-31 08:21:55 51°11.133 2°36.9 211.6 14.2 210 12.3
2007-05-31 08:22:00 51°11.116 2°36.884 211.2 14.3 210 12.2
2007-05-31 08:22:05 51°11.099 2°36.868 211.3 14.1 211 12.4
2007-05-31 08:22:09 51°11.086 2°36.856 211.9 14 210 12.2
2007-05-31 08:22:15 51°11.065 2°36.837 211.6 14.2 209 12.2
2007-05-31 08:22:20 51°11.048 2°36.822 210.8 14.2 209 12
2007-05-31 08:22:25 51°11.03 2°36.809 211.2 14 205 12
2007-05-31 08:22:30 51°11.012 2°36.798 208.7 13.9 201 11.8
2007-05-31 08:22:35 51°10.994 2°36.788 204.2 13.8 198 11.8
2007-05-31 08:22:40 51°10.976 2°36.781 201 13.8 194 11.7
2007-05-31 08:22:45 51°10.957 2°36.776 196.7 13.8 190 11.6
2007-05-31 08:22:50 51°10.938 2°36.772 192.3 13.7 188 11.6
2007-05-31 08:22:55 51°10.919 2°36.77 188.9 13.7 185 11.3
2007-05-31 08:23:00 51°10.9 2°36.767 186.1 13.7 184 11.2
2007-05-31 08:23:05 51°10.881 2°36.766 184 13.8 182 11.2
2007-05-31 08:23:09 51°10.866 2°36.766 182.3 13.7 181 11.1
2007-05-31 08:23:15 51°10.843 2°36.766 180.9 13.6 179 10.8
2007-05-31 08:23:20 51°10.824 2°36.769 179.9 13.6 174 10.7
2007-05-31 08:23:25 51°10.806 2°36.774 175.9 13.6 170 10.7
2007-05-31 08:23:29 51°10.791 2°36.779 171.2 13.4 167 10.1
2007-05-31 08:23:34 51°10.773 2°36.788 168.3 13.3 162 10.3
2007-05-31 08:23:40 51°10.753 2°36.801 163.6 13.2 158 9.7
2007-05-31 08:23:45 51°10.737 2°36.814 158.9 13.2 153 9.7
2007-05-31 08:23:49 51°10.724 2°36.825 154 13.3 152 9.5
2007-05-31 08:23:55 51°10.705 2°36.843 151.4 13.1 148 9.4
2007-05-31 08:24:00 51°10.689 2°36.858 148.6 13.1 148 9.3
2007-05-31 08:24:05 51°10.674 2°36.875 146.8 13.1 145 9.2
2007-05-31 08:24:10 51°10.659 2°36.891 145.3 13.2 145 9
2007-05-31 08:24:15 51°10.644 2°36.908 143.7 13.1 145 8.8
2007-05-31 08:24:19 51°10.632 2°36.922 143 13.2 144 8.7
2007-05-31 08:24:25 51°10.614 2°36.942 142.7 13.4 145 8.7
2007-05-31 08:24:30 51°10.599 2°36.959 142.8 13.3 145 8.3
2007-05-31 08:24:35 51°10.584 2°36.975 143.6 13.1 147 8.2
2007-05-31 08:24:40 51°10.569 2°36.99 144.6 12.9 148 7.8
2007-05-31 08:24:44 51°10.556 2°37.001 145.9 13 150 7.5
2007-05-31 08:24:50 51°10.537 2°37.019 147.3 13.2 149 7.6
2007-05-31 08:24:55 51°10.521 2°37.032 148.1 13.3 152 7.9
2007-05-31 08:25:00 51°10.505 2°37.046 149.9 13.4 153 8.4
2007-05-31 08:25:04 51°10.491 2°37.056 151.7 13.7 155 9.4
2007-05-31 08:25:10 51°10.47 2°37.072 153.2 14.1 155 10.5
2007-05-31 08:25:15 51°10.452 2°37.085 153.8 14.4 156 12
2007-05-31 08:25:20 51°10.434 2°37.097 154.8 14.4 157 13.1
2007-05-31 08:25:25 51°10.415 2°37.109 156 14.1 158 14.5
2007-05-31 08:25:29 51°10.401 2°37.119 157 14.1 157 15.2
2007-05-31 08:25:35 51°10.379 2°37.132 156.8 13.9 158 16.1
2007-05-31 08:25:40 51°10.361 2°37.142 157 13.8 161 16.2
2007-05-31 08:25:45 51°10.343 2°37.15 159.5 13.8 164 16.7
2007-05-31 08:25:49 51°10.328 2°37.156 162.5 13.8 166 17
2007-05-31 08:25:55 51°10.306 2°37.164 164.8 13.7 168 17.2
2007-05-31 08:26:00 51°10.287 2°37.17 166.4 13.7 168 17.3
2007-05-31 08:26:05 51°10.269 2°37.174 167.6 13.8 170 17.4
2007-05-31 08:26:09 51°10.254 2°37.179 168.8 13.8 170 17.4
2007-05-31 08:26:15 51°10.231 2°37.184 169.6 13.8 171 17.5
2007-05-31 08:26:20 51°10.212 2°37.189 170.4 13.8 172 17.4
2007-05-31 08:26:25 51°10.193 2°37.194 170.9 13.8 173 17.3
2007-05-31 08:26:29 51°10.178 2°37.197 171.2 13.8 174 17.5
2007-05-31 08:26:35 51°10.155 2°37.201 171.9 13.8 173 17.5
2007-05-31 08:26:39 51°10.14 2°37.203 172 13.8 173 17.9
2007-05-31 08:26:45 51°10.117 2°37.208 171.7 13.8 172 17.8
2007-05-31 08:26:50 51°10.098 2°37.212 170.8 13.8 173 17.5
2007-05-31 08:26:55 51°10.079 2°37.216 170.5 13.8 172 17.3
2007-05-31 08:27:00 51°10.06 2°37.221 170.5 13.7 172 17.2
2007-05-31 08:27:05 51°10.042 2°37.224 170 13.7 171 17.4
2007-05-31 08:27:10 51°10.023 2°37.229 169.6 13.8 171 17.3
2007-05-31 08:27:15 51°10.004 2°37.234 169.1 13.8 171 17.2
2007-05-31 08:27:20 51°9.985 2°37.239 168.9 13.7 171 17.1
2007-05-31 08:27:24 51°9.97 2°37.243 169.1 13.7 172 17.1
2007-05-31 08:27:30 51°9.947 2°37.247 169.6 13.9 173 17
2007-05-31 08:27:35 51°9.928 2°37.251 170.5 13.9 173 16.9
2007-05-31 08:27:40 51°9.909 2°37.254 170.5 13.8 173 16.9
2007-05-31 08:27:45 51°9.891 2°37.258 170.5 13.8 172 16.8
2007-05-31 08:27:49 51°9.875 2°37.261 170.1 13.8 171 16.6
2007-05-31 08:27:55 51°9.852 2°37.267 169.8 13.9 172 16.5
2007-05-31 08:28:00 51°9.834 2°37.271 169.7 13.9 171 16.5
2007-05-31 08:28:05 51°9.815 2°37.275 169.8 13.8 172 16.4
2007-05-31 08:28:09 51°9.8 2°37.278 169.8 13.8 171 16.4
2007-05-31 08:28:15 51°9.777 2°37.283 169.8 13.8 171 16.3
2007-05-31 08:28:20 51°9.758 2°37.287 169.8 13.8 171 16.2
2007-05-31 08:28:25 51°9.739 2°37.292 169.8 13.8 172 16
2007-05-31 08:28:30 51°9.72 2°37.296 169.8 13.9 172 16
2007-05-31 08:28:35 51°9.701 2°37.302 170.2 13.8 171 15.9
2007-05-31 08:28:40 51°9.682 2°37.306 169.9 13.8 172 15.8
2007-05-31 08:28:45 51°9.663 2°37.311 169.9 13.8 171 15.8
2007-05-31 08:28:49 51°9.648 2°37.315 169.8 13.9 172 15.8
2007-05-31 08:28:55 51°9.625 2°37.32 169.7 13.7 171 15.6
2007-05-31 08:29:00 51°9.606 2°37.325 169.5 13.7 171 15.1
2007-05-31 08:29:04 51°9.591 2°37.328 168.9 13.8 171 15.2
2007-05-31 08:29:10 51°9.569 2°37.334 169.2 13.9 171 15.1
2007-05-31 08:29:15 51°9.55 2°37.338 169.5 13.9 171 14.9
2007-05-31 08:29:20 51°9.531 2°37.343 169.5 13.8 170 14.6
2007-05-31 08:29:24 51°9.516 2°37.347 169.1 13.8 170 14.4
2007-05-31 08:29:30 51°9.494 2°37.353 169 13.8 170 13.9
2007-05-31 08:29:35 51°9.475 2°37.359 169.1 13.8 170 13.6
2007-05-31 08:29:40 51°9.457 2°37.364 169.1 13.1 170 13.3
2007-05-31 08:29:45 51°9.44 2°37.368 169.3 12.2 171 13
2007-05-31 08:29:50 51°9.424 2°37.373 169.6 11.5 171 12.6
2007-05-31 08:29:55 51°9.409 2°37.377 169.9 10.7 171 12.5
2007-05-31 08:30:00 51°9.395 2°37.381 169.8 9.9 170 12.3
2007-05-31 08:30:05 51°9.383 2°37.385 169.8 9.2 168 12.2
2007-05-31 08:30:09 51°9.375 2°37.388 168 8.2 163 12.1
2007-05-31 08:30:15 51°9.363 2°37.396 163 7.5 158 12
2007-05-31 08:30:20 51°9.354 2°37.403 157.3 6.8 153 11.9
2007-05-31 08:30:25 51°9.347 2°37.411 151.6 6.3 148 11.8
2007-05-31 08:30:29 51°9.341 2°37.417 146.1 5.8 144 11.7
2007-05-31 08:30:35 51°9.334 2°37.427 140.8 5.4 139 11.7
2007-05-31 08:30:40 51°9.33 2°37.435 135.8 5.1 134 11.6
2007-05-31 08:30:45 51°9.325 2°37.443 131 4.9 128 11.5
2007-05-31 08:30:50 51°9.322 2°37.452 125.3 4.7 122 11.5
2007-05-31 08:30:55 51°9.32 2°37.462 118.9 4.5 113 11.4
2007-05-31 08:30:59 51°9.318 2°37.469 111.7 4.3 105 11.4
2007-05-31 08:31:05 51°9.317 2°37.481 104.4 4.2 99 11.3
2007-05-31 08:31:10 51°9.317 2°37.49 97.3 4 90 11.3
2007-05-31 08:31:15 51°9.318 2°37.498 89.9 3.9 82 11.2
2007-05-31 08:31:20 51°9.32 2°37.506 82.8 3.8 73 11.2
2007-05-31 08:31:25 51°9.322 2°37.514 75.7 3.8 65 11.2
2007-05-31 08:31:30 51°9.324 2°37.521 68.7 3.7 57 11.1
2007-05-31 08:31:35 51°9.328 2°37.527 61.6 3.7 50 11.2
2007-05-31 08:31:40 51°9.332 2°37.532 54.4 3.7 41 11.2
2007-05-31 08:31:44 51°9.335 2°37.536 47.5 3.4 35 11.2
2007-05-31 08:31:50 51°9.339 2°37.539 40.5 3.2 27 11.2
2007-05-31 08:31:55 51°9.343 2°37.542 34.2 3 26 11.3
2007-05-31 08:32:00 51°9.347 2°37.544 30.5 2.8 21 11.3
2007-05-31 08:32:05 51°9.35 2°37.547 28.2 2.7 21 11.4
2007-05-31 08:32:10 51°9.354 2°37.548 26.5 2.6 17 11.5
2007-05-31 08:32:15 51°9.357 2°37.55 25.2 2.5 18 11.6
2007-05-31 08:32:20 51°9.36 2°37.551 24.2 2.4 14 11.5
2007-05-31 08:32:25 51°9.363 2°37.553 23.2 2.4 15 11.6
2007-05-31 08:32:29 51°9.366 2°37.554 22 2.3 11 11.6
2007-05-31 08:32:35 51°9.37 2°37.555 21.2 2.2 13 11.6
2007-05-31 08:32:40 51°9.373 2°37.555 20.2 2.2 9 11.6
2007-05-31 08:32:45 51°9.375 2°37.556 19.3 2.1 8 11.7
2007-05-31 08:32:49 51°9.378 2°37.557 18.4 2.1 6 11.6
2007-05-31 08:32:55 51°9.381 2°37.557 17.7 2 6 11.7
2007-05-31 08:33:00 51°9.384 2°37.557 16.5 2 4 11.7
2007-05-31 08:33:05 51°9.386 2°37.557 15.6 1.9 4 11.8
2007-05-31 08:33:09 51°9.388 2°37.557 14.7 1.9 1 11.7
2007-05-31 08:33:15 51°9.391 2°37.557 13.9 1.8 -999 11.8
2007-05-31 08:33:20 51°9.394 2°37.557 13.2 1.7 -999 11.8
2007-05-31 08:33:25 51°9.396 2°37.557 12.3 1.7 359 11.9
2007-05-31 08:33:30 51°9.399 2°37.557 11.6 1.7 358 11.8
2007-05-31 08:33:35 51°9.401 2°37.557 11.1 1.7 354 11.9
2007-05-31 08:33:40 51°9.403 2°37.556 10.5 1.6 356 11.9
2007-05-31 08:33:45 51°9.405 2°37.556 9.6 1.6 353 11.9
2007-05-31 08:33:50 51°9.408 2°37.556 8.8 1.6 354 12
2007-05-31 08:33:55 51°9.41 2°37.555 8.3 1.5 353 12
2007-05-31 08:34:00 51°9.412 2°37.555 7.7 1.5 351 12
2007-05-31 08:34:04 51°9.413 2°37.554 7.2 1.5 349 12
2007-05-31 08:34:10 51°9.416 2°37.554 6.6 1.4 349 12
2007-05-31 08:34:15 51°9.418 2°37.553 5.9 1.4 349 12
2007-05-31 08:34:20 51°9.42 2°37.552 5.4 1.4 345 12
2007-05-31 08:34:25 51°9.421 2°37.551 4.7 1.4 346 12.1
2007-05-31 08:34:29 51°9.423 2°37.551 3.9 1.4 344 12
2007-05-31 08:34:35 51°9.425 2°37.55 3.3 1.4 342 12.1
2007-05-31 08:34:40 51°9.427 2°37.549 2.6 1.3 343 12.2
2007-05-31 08:34:45 51°9.428 2°37.548 2 1.3 342 12.2
2007-05-31 08:34:49 51°9.43 2°37.547 1.4 1.3 339 12.2
2007-05-31 08:34:55 51°9.432 2°37.546 0.7 1.3 339 12.2
2007-05-31 08:35:00 51°9.433 2°37.545 0.1 1.2 337 12.2
2007-05-31 08:35:05 51°9.435 2°37.544 359.7 1.2 338 12.2
2007-05-31 08:35:10 51°9.436 2°37.543 358.7 1.2 334 12.3
2007-05-31 08:35:15 51°9.438 2°37.542 358.3 1.2 334 12.3
2007-05-31 08:35:20 51°9.439 2°37.541 357.4 1.2 332 12.3
2007-05-31 08:35:25 51°9.44 2°37.54 356.7 1.1 333 12.3
2007-05-31 08:35:29 51°9.441 2°37.539 356.1 1.1 329 12.4
2007-05-31 08:35:35 51°9.443 2°37.537 355.6 1.1 331 12.4
2007-05-31 08:35:40 51°9.444 2°37.536 355.1 1.1 326 12.4
2007-05-31 08:35:45 51°9.446 2°37.535 354.4 1.2 331 12.4
2007-05-31 08:35:50 51°9.447 2°37.533 353.8 1.4 334 12.4
2007-05-31 08:35:55 51°9.45 2°37.532 353.4 1.6 336 12.5
2007-05-31 08:35:59 51°9.451 2°37.531 353.3 1.8 337 12.4
2007-05-31 08:36:04 51°9.454 2°37.529 353.3 2.1 339 12.5
2007-05-31 08:36:10 51°9.458 2°37.527 353.7 2.3 340 12.5
2007-05-31 08:36:15 51°9.461 2°37.526 354.1 2.6 343 12.6
2007-05-31 08:36:20 51°9.465 2°37.524 355.2 2.9 345 12.6
2007-05-31 08:36:25 51°9.469 2°37.522 356.3 3.3 347 12.7
2007-05-31 08:36:30 51°9.474 2°37.521 358 3.6 350 12.8
2007-05-31 08:36:35 51°9.48 2°37.52 359.4 3.9 353 12.9
2007-05-31 08:36:40 51°9.485 2°37.519 1.2 4.2 354 13
2007-05-31 08:36:44 51°9.49 2°37.519 3.6 4.3 -999 13
2007-05-31 08:36:49 51°9.496 2°37.519 6.5 4.3 3 13.1
2007-05-31 08:36:55 51°9.503 2°37.521 11.4 4.3 9 13.2
2007-05-31 08:37:00 51°9.509 2°37.523 14.7 4.3 12 13.2
2007-05-31 08:37:05 51°9.515 2°37.526 18.8 4.3 17 13.3
2007-05-31 08:37:09 51°9.519 2°37.528 22.9 4.3 20 13.4
2007-05-31 08:37:15 51°9.525 2°37.533 26.6 4.2 26 13.5
2007-05-31 08:37:20 51°9.53 2°37.537 31.4 4 30 13.6
2007-05-31 08:37:25 51°9.535 2°37.542 34.5 3.9 33 13.6
2007-05-31 08:37:29 51°9.538 2°37.546 38.4 3.7 36 13.7
2007-05-31 08:37:35 51°9.543 2°37.552 40.8 3.6 40 13.8
2007-05-31 08:37:40 51°9.546 2°37.557 44.2 3.5 41 13.8
2007-05-31 08:37:45 51°9.549 2°37.563 46.4 3.3 46 13.8
2007-05-31 08:37:50 51°9.552 2°37.568 49 3.3 48 13.8
2007-05-31 08:37:55 51°9.555 2°37.574 51.5 3.2 52 13.8
2007-05-31 08:38:00 51°9.558 2°37.579 54.1 3.1 54 13.8
2007-05-31 08:38:05 51°9.56 2°37.585 57.3 3.1 57 13.8
2007-05-31 08:38:10 51°9.562 2°37.591 59.1 3 60 13.8
2007-05-31 08:38:15 51°9.564 2°37.596 61.6 3 61 13.8
2007-05-31 08:38:20 51°9.566 2°37.602 63.9 3 65 13.9
2007-05-31 08:38:24 51°9.567 2°37.607 66.1 2.9 68 13.9
2007-05-31 08:38:30 51°9.569 2°37.614 68.5 2.9 71 13.8
2007-05-31 08:38:35 51°9.57 2°37.621 71.3 2.9 75 13.8
2007-05-31 08:38:40 51°9.571 2°37.627 73.1 2.9 77 13.9
2007-05-31 08:38:45 51°9.571 2°37.633 75.4 2.9 79 13.8
2007-05-31 08:38:49 51°9.572 2°37.639 77.8 3 83 13.8
2007-05-31 08:38:55 51°9.572 2°37.647 80.3 3.1 84 13.8
2007-05-31 08:39:00 51°9.573 2°37.653 82.7 3.1 88 13.7
2007-05-31 08:39:05 51°9.573 2°37.66 85.2 3.1 89 13.7
2007-05-31 08:39:09 51°9.572 2°37.666 87.8 3.2 94 13.7
2007-05-31 08:39:15 51°9.572 2°37.674 90.2 3.2 96 13.6
2007-05-31 08:39:20 51°9.571 2°37.681 93.4 3.2 100 13.6
2007-05-31 08:39:25 51°9.57 2°37.689 95.3 3.3 100 13.6
2007-05-31 08:39:29 51°9.569 2°37.694 97.3 3.2 103 13.5
2007-05-31 08:39:35 51°9.568 2°37.703 98.8 3.2 102 13.5
2007-05-31 08:39:40 51°9.567 2°37.71 99.5 3.2 102 13.4
2007-05-31 08:39:45 51°9.567 2°37.716 99.2 3.2 101 13.4
2007-05-31 08:39:49 51°9.566 2°37.722 97.9 3.2 99 13.4
2007-05-31 08:39:55 51°9.565 2°37.731 96.2 3.3 99 13.4
2007-05-31 08:40:00 51°9.564 2°37.738 95 3.3 98 13.3
2007-05-31 08:40:05 51°9.564 2°37.745 94.3 3.3 98 13.3
2007-05-31 08:40:10 51°9.563 2°37.752 93.8 3.3 97 13.2
2007-05-31 08:40:15 51°9.563 2°37.759 93.3 3.3 98 13.1